Idledale, Colorado
Current Conditions -  °F | °C
As of 11:35 PM on Friday 28 Nov 2014 (Local Time) from KBJC Reporting Station
Clear Clear  
Wind Chill: 52°   Ceiling: Unl
Heat Index: 52°   Visibility: 10mi
Dew Point: 10°   Wind: 5mph
Humidity: 19%   Direction: 200°SSW
Pressure: 29.79"   Gusts: NA
Location:  39.67°N, 105.25°W
Report Text: KBJC 290635Z AUTO 20004KT 10SM CLR 11/M12 A2979 RMK AO2
Loading
Personal Weather Stations






























Interactive Weather Map New forecast layout! Learn more

10-Day Weather Forecast

Advertisements
Track Severe Weather on mobile